createdAt,value
2022-10-02T00:00:02.165Z,87.93
2022-10-02T00:02:44.063Z,88.05
2022-10-02T00:05:20.729Z,88.01
2022-10-02T00:07:59.780Z,87.95
2022-10-02T00:10:37.945Z,87.88
2022-10-02T00:13:09.853Z,88.12
2022-10-02T00:15:43.399Z,88.08
2022-10-02T00:18:17.886Z,88.28
2022-10-02T00:21:04.537Z,88.08
2022-10-02T00:23:42.599Z,88.29
2022-10-02T00:26:20.197Z,88.19
2022-10-02T00:29:03.625Z,88.25
2022-10-02T00:31:44.998Z,88.27
2022-10-02T00:34:23.974Z,88.40
2022-10-02T00:37:11.727Z,88.56
2022-10-02T00:40:02.491Z,88.69
2022-10-02T00:43:11.229Z,88.96
2022-10-02T00:46:08.271Z,89.28
2022-10-02T00:48:56.675Z,89.24
2022-10-02T00:51:53.692Z,89.07
2022-10-02T00:54:46.892Z,88.96
2022-10-02T00:57:32.890Z,88.77
2022-10-02T01:00:10.803Z,89.14
2022-10-02T01:03:16.919Z,88.87
2022-10-02T01:05:45.992Z,88.68
2022-10-02T01:08:15.308Z,88.61
2022-10-02T01:10:44.838Z,88.78
2022-10-02T01:13:15.324Z,88.80
2022-10-02T01:15:54.708Z,88.71
2022-10-02T01:18:24.294Z,88.80
2022-10-02T01:20:59.978Z,88.95
2022-10-02T01:23:42.428Z,88.88
2022-10-02T01:26:12.757Z,88.81
2022-10-02T01:28:42.572Z,88.83
2022-10-02T01:31:15.415Z,88.72
2022-10-02T01:33:48.693Z,88.84
2022-10-02T01:36:18.804Z,88.78
2022-10-02T01:38:50.370Z,88.78
2022-10-02T01:41:20.584Z,88.62
2022-10-02T01:43:53.640Z,88.56
2022-10-02T01:46:32.992Z,88.38
2022-10-02T01:49:40.784Z,88.05
2022-10-02T01:52:24.128Z,88.16
2022-10-02T01:55:29.624Z,88.21
2022-10-02T01:58:17.729Z,88.00
2022-10-02T02:01:06.106Z,88.17
2022-10-02T02:03:45.128Z,88.28
2022-10-02T02:06:25.582Z,88.42
2022-10-02T02:09:09.164Z,88.45
2022-10-02T02:11:47.470Z,88.72
2022-10-02T02:14:25.672Z,88.77
2022-10-02T02:17:03.843Z,88.75
2022-10-02T02:19:38.528Z,88.75
2022-10-02T02:22:16.999Z,88.91
2022-10-02T02:24:53.503Z,88.99
2022-10-02T02:27:27.812Z,89.14
2022-10-02T02:30:05.215Z,89.04
2022-10-02T02:32:40.259Z,89.02
2022-10-02T02:35:17.385Z,88.92
2022-10-02T02:37:51.847Z,89.02
2022-10-02T02:40:25.755Z,88.82
2022-10-02T02:43:02.576Z,88.83
2022-10-02T02:45:38.954Z,88.64
2022-10-02T02:48:11.998Z,88.45
2022-10-02T02:50:48.630Z,88.51
2022-10-02T02:53:24.073Z,88.19
2022-10-02T02:55:58.111Z,87.82
2022-10-02T02:58:32.129Z,88.07
2022-10-02T03:01:02.622Z,88.19
2022-10-02T03:03:31.500Z,88.26
2022-10-02T03:06:07.921Z,88.37
2022-10-02T03:08:38.285Z,88.42
2022-10-02T03:11:17.963Z,88.30
2022-10-02T03:14:03.575Z,88.44
2022-10-02T03:16:48.594Z,88.44
2022-10-02T03:19:37.571Z,88.44
2022-10-02T03:22:14.619Z,88.22
2022-10-02T03:24:53.617Z,88.18
2022-10-02T03:27:34.657Z,88.34
2022-10-02T03:30:08.450Z,88.15
2022-10-02T03:32:41.249Z,88.15
2022-10-02T03:35:13.284Z,88.30
2022-10-02T03:37:47.076Z,88.42
2022-10-02T03:40:17.197Z,88.78
2022-10-02T03:42:46.304Z,88.90
2022-10-02T03:45:32.700Z,89.07
2022-10-02T03:48:06.469Z,88.93
2022-10-02T03:50:36.591Z,89.01
2022-10-02T03:53:15.249Z,89.40
2022-10-02T03:55:51.802Z,89.29
2022-10-02T03:58:20.776Z,89.60
2022-10-02T04:01:00.136Z,89.55
2022-10-02T04:03:37.886Z,89.32
2022-10-02T04:06:13.917Z,88.97
2022-10-02T04:08:54.339Z,88.85
2022-10-02T04:11:33.600Z,88.77
2022-10-02T04:14:11.502Z,88.91
2022-10-02T04:16:48.710Z,89.00
2022-10-02T04:19:26.548Z,89.08
2022-10-02T04:22:02.114Z,89.07
2022-10-02T04:24:40.187Z,88.80
2022-10-02T04:27:17.041Z,88.89
2022-10-02T04:29:52.744Z,88.97
2022-10-02T04:32:27.488Z,89.07
2022-10-02T04:34:58.538Z,89.06
2022-10-02T04:37:47.035Z,89.02
2022-10-02T04:40:36.834Z,88.94
2022-10-02T04:43:25.446Z,88.85
2022-10-02T04:46:10.297Z,88.81
2022-10-02T04:49:14.417Z,88.72
2022-10-02T04:52:23.689Z,88.79
2022-10-02T04:55:19.266Z,88.87
2022-10-02T04:58:22.061Z,89.25
2022-10-02T05:01:05.798Z,89.37
2022-10-02T05:04:03.179Z,89.35
2022-10-02T05:07:05.626Z,89.25
2022-10-02T05:09:44.272Z,89.25
2022-10-02T05:12:42.699Z,89.07
2022-10-02T05:15:46.623Z,89.12
2022-10-02T05:18:43.405Z,89.20
2022-10-02T05:21:35.832Z,89.66
2022-10-02T05:24:23.558Z,89.67
2022-10-02T05:27:14.770Z,89.59
2022-10-02T05:30:06.814Z,89.65
2022-10-02T05:33:31.820Z,89.69
2022-10-02T05:36:36.825Z,89.77
2022-10-02T05:39:10.526Z,89.77
2022-10-02T05:41:50.354Z,89.83
2022-10-02T05:44:27.174Z,89.76
2022-10-02T05:47:06.663Z,89.79
2022-10-02T05:49:41.580Z,89.78
2022-10-02T05:52:18.971Z,89.85
2022-10-02T05:54:56.411Z,89.90
2022-10-02T05:57:34.215Z,89.62
2022-10-02T06:00:20.688Z,89.59
2022-10-02T06:02:59.722Z,89.64
2022-10-02T06:05:42.093Z,89.46
2022-10-02T06:08:17.645Z,89.25
2022-10-02T06:10:52.074Z,88.85
2022-10-02T06:13:28.786Z,88.91
2022-10-02T06:16:09.987Z,89.14
2022-10-02T06:18:42.321Z,89.48
2022-10-02T06:21:29.069Z,89.29
2022-10-02T06:24:03.531Z,89.05
2022-10-02T06:26:45.123Z,88.72
2022-10-02T06:29:27.037Z,88.78
2022-10-02T06:32:16.034Z,88.73
2022-10-02T06:34:48.002Z,88.59
2022-10-02T06:37:39.887Z,88.09
2022-10-02T06:40:43.739Z,87.90
2022-10-02T06:43:50.361Z,87.57
2022-10-02T06:46:32.643Z,87.87
2022-10-02T06:49:12.705Z,88.06
2022-10-02T06:52:00.683Z,88.40
2022-10-02T06:55:02.938Z,88.31
2022-10-02T06:57:56.710Z,88.12
2022-10-02T07:00:25.530Z,87.40
2022-10-02T07:03:27.385Z,87.28
2022-10-02T07:06:14.684Z,86.64
2022-10-02T07:09:10.995Z,86.32
2022-10-02T07:11:52.009Z,86.04
2022-10-02T07:14:46.156Z,85.81
2022-10-02T07:17:42.181Z,85.30
2022-10-02T07:20:36.691Z,85.24
2022-10-02T07:23:42.137Z,85.44
2022-10-02T07:26:39.865Z,85.26
2022-10-02T07:29:28.982Z,84.51
2022-10-02T07:32:26.806Z,84.66
2022-10-02T07:35:09.486Z,84.61
2022-10-02T07:37:52.486Z,84.92
2022-10-02T07:40:36.254Z,83.61
2022-10-02T07:43:24.986Z,83.75
2022-10-02T07:46:09.939Z,84.13
2022-10-02T07:49:05.746Z,84.40
2022-10-02T07:51:49.886Z,84.61
2022-10-02T07:55:02.335Z,84.73
2022-10-02T07:57:44.601Z,84.60
2022-10-02T08:00:16.900Z,84.70
2022-10-02T08:02:52.752Z,84.51
2022-10-02T08:05:26.904Z,83.64
2022-10-02T08:08:03.579Z,83.26
2022-10-02T08:10:39.984Z,83.02
2022-10-02T08:13:20.641Z,82.47
2022-10-02T08:15:55.176Z,82.65
2022-10-02T08:18:35.432Z,83.29
2022-10-02T08:21:12.503Z,82.86
2022-10-02T08:23:50.507Z,82.90
2022-10-02T08:26:26.688Z,83.18
2022-10-02T08:29:05.900Z,82.75
2022-10-02T08:31:35.559Z,82.06
2022-10-02T08:34:17.796Z,81.43
2022-10-02T08:37:28.877Z,81.07
2022-10-02T08:40:48.787Z,81.20
2022-10-02T08:44:27.175Z,81.59
2022-10-02T08:47:44.767Z,81.80
2022-10-02T08:50:59.306Z,81.06
2022-10-02T08:54:15.633Z,80.81
2022-10-02T08:57:14.140Z,81.00
2022-10-02T09:00:23.245Z,80.90
2022-10-02T09:03:49.352Z,80.90
2022-10-02T09:07:19.266Z,81.25
2022-10-02T09:10:49.034Z,81.16
2022-10-02T09:14:10.434Z,81.42
2022-10-02T09:17:18.608Z,81.39
2022-10-02T09:20:16.910Z,80.90
2022-10-02T09:23:32.316Z,81.07
2022-10-02T09:26:25.248Z,80.99
2022-10-02T09:29:50.166Z,80.74
2022-10-02T09:33:27.663Z,79.88
2022-10-02T09:36:55.058Z,79.64
2022-10-02T09:40:18.142Z,79.31
2022-10-02T09:44:06.406Z,79.48
2022-10-02T09:47:24.472Z,79.22
2022-10-02T09:50:49.977Z,79.04
2022-10-02T09:53:58.587Z,79.09
2022-10-02T09:57:24.758Z,78.93
2022-10-02T10:00:15.156Z,79.17
2022-10-02T10:03:36.638Z,79.11
2022-10-02T10:06:55.172Z,78.82
2022-10-02T10:10:12.471Z,78.71
2022-10-02T10:13:44.817Z,78.23
2022-10-02T10:17:10.168Z,78.05
2022-10-02T10:20:22.917Z,78.41
2022-10-02T10:23:59.417Z,78.30
2022-10-02T10:27:07.968Z,78.25
2022-10-02T10:30:13.242Z,78.36
2022-10-02T10:33:55.872Z,78.39
2022-10-02T10:37:14.593Z,78.41
2022-10-02T10:40:35.267Z,77.92
2022-10-02T10:43:56.074Z,78.68
2022-10-02T10:47:18.344Z,78.77
2022-10-02T10:50:26.859Z,78.50
2022-10-02T10:53:28.031Z,78.82
2022-10-02T10:56:22.151Z,78.88
2022-10-02T10:59:42.513Z,78.41
2022-10-02T11:02:53.322Z,78.02
2022-10-02T11:06:25.348Z,78.20
2022-10-02T11:09:43.886Z,78.12
2022-10-02T11:12:54.236Z,78.35
2022-10-02T11:16:01.363Z,78.00
2022-10-02T11:19:05.185Z,77.77
2022-10-02T11:21:51.886Z,77.51
2022-10-02T11:24:51.046Z,77.59
2022-10-02T11:27:53.830Z,77.62
2022-10-02T11:30:26.575Z,77.30
2022-10-02T11:33:22.748Z,77.33
2022-10-02T11:36:24.583Z,77.63
2022-10-02T11:39:14.953Z,77.95
2022-10-02T11:42:42.200Z,78.10
2022-10-02T11:45:37.254Z,77.79
2022-10-02T11:48:47.365Z,77.57
2022-10-02T11:51:46.462Z,77.79
2022-10-02T11:54:51.505Z,77.95
2022-10-02T11:57:35.930Z,78.15
2022-10-02T12:00:45.451Z,78.39
2022-10-02T12:03:23.350Z,78.37
2022-10-02T12:06:07.884Z,78.60
2022-10-02T12:08:59.301Z,79.04
2022-10-02T12:11:40.023Z,78.69
2022-10-02T12:14:35.750Z,78.24
2022-10-02T12:17:53.327Z,77.48
2022-10-02T12:20:57.707Z,77.10
2022-10-02T12:24:00.004Z,76.60
2022-10-02T12:27:04.205Z,76.86
2022-10-02T12:29:50.539Z,75.79
2022-10-02T12:32:58.027Z,75.06
2022-10-02T12:35:50.092Z,75.06
2022-10-02T12:38:35.667Z,75.35
2022-10-02T12:41:20.912Z,75.46
2022-10-02T12:44:41.730Z,75.01
2022-10-02T12:47:58.425Z,74.76
2022-10-02T12:50:53.400Z,75.12
2022-10-02T12:54:19.533Z,74.46
2022-10-02T12:57:56.073Z,75.38
2022-10-02T13:00:31.151Z,75.42
2022-10-02T13:04:00.117Z,75.34
2022-10-02T13:07:39.977Z,75.45
2022-10-02T13:10:21.961Z,75.83
2022-10-02T13:13:13.881Z,75.97
2022-10-02T13:15:54.899Z,75.89
2022-10-02T13:18:52.725Z,75.82
2022-10-02T13:21:31.492Z,75.77
2022-10-02T13:24:25.083Z,75.69
2022-10-02T13:27:06.462Z,75.94
2022-10-02T13:30:00.899Z,75.94
2022-10-02T13:33:09.759Z,75.63
2022-10-02T13:36:08.064Z,76.00
2022-10-02T13:39:08.338Z,76.06
2022-10-02T13:41:58.860Z,76.19
2022-10-02T13:44:49.731Z,76.43
2022-10-02T13:47:40.094Z,76.65
2022-10-02T13:50:25.115Z,76.60
2022-10-02T13:53:33.079Z,76.57
2022-10-02T13:56:17.603Z,76.99
2022-10-02T13:59:27.053Z,77.00
2022-10-02T14:02:16.401Z,76.87
2022-10-02T14:05:00.571Z,76.13
2022-10-02T14:07:52.753Z,76.06
2022-10-02T14:10:38.476Z,76.68
2022-10-02T14:13:33.807Z,76.78
2022-10-02T14:16:23.734Z,76.90
2022-10-02T14:19:24.706Z,77.47
2022-10-02T14:22:14.551Z,77.45
2022-10-02T14:25:07.616Z,76.88
2022-10-02T14:28:14.158Z,76.99
2022-10-02T14:31:03.582Z,76.97
2022-10-02T14:34:02.000Z,77.28
2022-10-02T14:36:43.116Z,77.35
2022-10-02T14:39:31.977Z,77.63
2022-10-02T14:42:34.458Z,77.92
2022-10-02T14:45:53.739Z,78.14
2022-10-02T14:48:57.715Z,78.08
2022-10-02T14:51:53.604Z,78.25
2022-10-02T14:54:46.757Z,78.63
2022-10-02T14:57:46.180Z,78.95
2022-10-02T15:00:21.331Z,78.99
2022-10-02T15:03:34.448Z,79.08
2022-10-02T15:06:24.326Z,78.96
2022-10-02T15:09:01.535Z,79.12
2022-10-02T15:11:56.839Z,79.10
2022-10-02T15:14:37.563Z,78.82
2022-10-02T15:17:33.997Z,78.65
2022-10-02T15:20:24.974Z,79.28
2022-10-02T15:23:00.266Z,79.35
2022-10-02T15:26:02.183Z,79.29
2022-10-02T15:28:50.334Z,79.54
2022-10-02T15:31:33.651Z,79.69
2022-10-02T15:34:22.122Z,79.93
2022-10-02T15:37:09.226Z,80.20
2022-10-02T15:40:09.110Z,80.47
2022-10-02T15:42:56.140Z,80.82
2022-10-02T15:45:54.797Z,81.30
2022-10-02T15:48:53.295Z,81.46
2022-10-02T15:51:53.704Z,81.75
2022-10-02T15:54:46.702Z,82.21
2022-10-02T15:57:56.217Z,82.27
2022-10-02T16:00:27.607Z,82.55
2022-10-02T16:03:13.805Z,82.90
2022-10-02T16:05:54.866Z,83.39
2022-10-02T16:09:17.887Z,83.67
2022-10-02T16:12:43.886Z,84.09
2022-10-02T16:15:24.272Z,84.27
2022-10-02T16:18:30.466Z,84.40
2022-10-02T16:21:25.229Z,84.56
2022-10-02T16:24:26.332Z,84.68
2022-10-02T16:27:25.190Z,84.93
2022-10-02T16:30:13.464Z,85.12
2022-10-02T16:33:05.533Z,85.20
2022-10-02T16:36:10.859Z,85.34
2022-10-02T16:38:52.226Z,85.43
2022-10-02T16:42:15.227Z,85.52
2022-10-02T16:45:49.013Z,85.77
2022-10-02T16:48:27.065Z,85.76
2022-10-02T16:51:38.336Z,86.04
2022-10-02T16:54:22.800Z,86.05
2022-10-02T16:57:02.689Z,86.07
2022-10-02T16:59:46.310Z,86.10
2022-10-02T17:02:24.833Z,86.40
2022-10-02T17:05:08.204Z,86.45
2022-10-02T17:07:54.768Z,86.54
2022-10-02T17:10:39.381Z,86.77
2022-10-02T17:13:30.840Z,86.60
2022-10-02T17:16:09.215Z,86.79
2022-10-02T17:18:50.430Z,86.87
2022-10-02T17:21:25.577Z,86.98
2022-10-02T17:24:25.416Z,86.92
2022-10-02T17:27:10.579Z,87.10
2022-10-02T17:29:54.428Z,87.12
2022-10-02T17:32:40.397Z,87.13
2022-10-02T17:35:19.776Z,87.31
2022-10-02T17:38:20.184Z,87.46
2022-10-02T17:41:06.627Z,87.42
2022-10-02T17:43:50.975Z,87.35
2022-10-02T17:46:53.454Z,87.32
2022-10-02T17:49:44.000Z,87.37
2022-10-02T17:52:47.011Z,87.40
2022-10-02T17:56:18.068Z,87.58
2022-10-02T17:58:57.340Z,87.56
2022-10-02T18:01:39.262Z,87.68
2022-10-02T18:04:23.107Z,87.78
2022-10-02T18:07:15.220Z,88.21
2022-10-02T18:10:11.585Z,88.25
2022-10-02T18:13:18.583Z,88.40
2022-10-02T18:16:22.414Z,88.41
2022-10-02T18:19:35.121Z,88.48
2022-10-02T18:22:35.768Z,88.34
2022-10-02T18:25:30.502Z,88.56
2022-10-02T18:28:27.237Z,88.62
2022-10-02T18:31:17.453Z,88.74
2022-10-02T18:34:17.355Z,88.80
2022-10-02T18:37:18.626Z,88.83
2022-10-02T18:40:10.506Z,88.90
2022-10-02T18:43:11.359Z,88.96
2022-10-02T18:45:56.262Z,88.99
2022-10-02T18:48:52.273Z,89.13
2022-10-02T18:51:52.415Z,89.27
2022-10-02T18:54:35.738Z,89.13
2022-10-02T18:57:29.269Z,89.47
2022-10-02T19:00:15.734Z,89.48
2022-10-02T19:03:10.850Z,89.41
2022-10-02T19:05:51.644Z,89.54
2022-10-02T19:08:28.805Z,89.59
2022-10-02T19:10:59.784Z,89.63
2022-10-02T19:13:31.254Z,89.66
2022-10-02T19:16:17.632Z,89.68
2022-10-02T19:18:47.037Z,89.61
2022-10-02T19:21:21.283Z,89.65
2022-10-02T19:24:00.058Z,89.61
2022-10-02T19:26:35.493Z,89.89
2022-10-02T19:29:20.844Z,89.81
2022-10-02T19:31:50.383Z,89.73
2022-10-02T19:34:30.731Z,89.79
2022-10-02T19:37:06.067Z,90.00
2022-10-02T19:39:41.647Z,89.93
2022-10-02T19:42:19.727Z,90.00
2022-10-02T19:44:52.715Z,90.02
2022-10-02T19:47:33.105Z,90.05
2022-10-02T19:50:05.363Z,89.96
2022-10-02T19:52:46.908Z,90.12
2022-10-02T19:55:26.933Z,90.16
2022-10-02T19:58:04.686Z,90.05
2022-10-02T20:00:39.461Z,89.97
2022-10-02T20:03:17.208Z,89.90
2022-10-02T20:05:50.545Z,89.86
2022-10-02T20:08:27.427Z,89.93
2022-10-02T20:11:05.341Z,89.82
2022-10-02T20:13:42.071Z,90.13
2022-10-02T20:16:42.007Z,90.09
2022-10-02T20:19:19.033Z,90.02
2022-10-02T20:21:54.423Z,89.99
2022-10-02T20:24:33.081Z,90.22
2022-10-02T20:27:20.655Z,90.18
2022-10-02T20:30:00.659Z,90.22
2022-10-02T20:32:38.236Z,90.39
2022-10-02T20:35:19.691Z,90.38
2022-10-02T20:37:53.036Z,90.17
2022-10-02T20:40:27.149Z,90.25
2022-10-02T20:43:02.339Z,90.21
2022-10-02T20:45:42.179Z,90.07
2022-10-02T20:49:16.803Z,89.95
2022-10-02T20:52:19.102Z,90.14
2022-10-02T20:54:59.938Z,90.12
2022-10-02T20:58:09.614Z,89.96
2022-10-02T21:01:04.251Z,90.06
2022-10-02T21:04:14.390Z,89.99
2022-10-02T21:07:35.092Z,89.85
2022-10-02T21:11:05.573Z,89.93
2022-10-02T21:14:36.719Z,89.76
2022-10-02T21:18:16.562Z,89.63
2022-10-02T21:21:31.915Z,89.56
2022-10-02T21:24:45.978Z,89.60
2022-10-02T21:28:14.683Z,89.68
2022-10-02T21:30:58.200Z,89.58
2022-10-02T21:33:35.739Z,89.40
2022-10-02T21:36:17.262Z,89.50
2022-10-02T21:39:38.480Z,89.49
2022-10-02T21:42:55.716Z,89.55
2022-10-02T21:46:13.741Z,89.40
2022-10-02T21:49:24.865Z,89.81
2022-10-02T21:52:55.668Z,90.05
2022-10-02T21:56:27.213Z,89.92
2022-10-02T21:59:25.753Z,89.69
2022-10-02T22:03:01.226Z,89.63
2022-10-02T22:06:17.637Z,89.49
2022-10-02T22:09:14.220Z,89.52
2022-10-02T22:12:00.575Z,89.38
2022-10-02T22:14:36.487Z,89.30
2022-10-02T22:17:23.856Z,89.24
2022-10-02T22:20:38.222Z,89.26
2022-10-02T22:23:30.351Z,89.25
2022-10-02T22:26:25.486Z,89.07
2022-10-02T22:29:00.630Z,89.14
2022-10-02T22:31:53.651Z,89.05
2022-10-02T22:34:41.598Z,88.94
2022-10-02T22:37:36.174Z,88.78
2022-10-02T22:40:13.411Z,88.86
2022-10-02T22:42:52.080Z,88.74
2022-10-02T22:45:31.909Z,88.72
2022-10-02T22:48:08.156Z,88.67
2022-10-02T22:50:48.218Z,88.72
2022-10-02T22:53:24.800Z,88.61
2022-10-02T22:55:57.092Z,88.66
2022-10-02T22:58:38.848Z,88.87
2022-10-02T23:01:18.562Z,88.87
2022-10-02T23:03:54.560Z,88.85
2022-10-02T23:06:30.755Z,88.71
2022-10-02T23:09:08.514Z,88.66
2022-10-02T23:11:46.207Z,88.62
2022-10-02T23:14:28.828Z,88.63
2022-10-02T23:17:07.109Z,88.51
2022-10-02T23:19:45.753Z,88.54
2022-10-02T23:22:29.143Z,88.41
2022-10-02T23:25:15.814Z,88.46
2022-10-02T23:27:55.289Z,88.42
2022-10-02T23:30:26.434Z,88.35
2022-10-02T23:33:03.996Z,88.45
2022-10-02T23:35:46.307Z,88.41
2022-10-02T23:38:20.886Z,88.49
2022-10-02T23:41:23.801Z,88.50
2022-10-02T23:44:13.646Z,88.69
2022-10-02T23:47:20.970Z,88.47
2022-10-02T23:49:54.625Z,88.56
2022-10-02T23:53:03.800Z,88.61
2022-10-02T23:55:57.062Z,88.83
2022-10-02T23:59:01.549Z,88.79
